sensor_id;sensor_type;location;lat;lon;timestamp;P1;durP1;ratioP1;P2;durP2;ratioP2
33864;SDS011;20159;51.072;13.526;2022-08-06T00:00:38;2.95;;;1.73;;
33864;SDS011;20159;51.072;13.526;2022-08-06T00:03:04;2.72;;;1.42;;
33864;SDS011;20159;51.072;13.526;2022-08-06T00:05:29;4.47;;;1.83;;
33864;SDS011;20159;51.072;13.526;2022-08-06T00:07:55;2.95;;;1.63;;
33864;SDS011;20159;51.072;13.526;2022-08-06T00:10:22;4.03;;;1.52;;
33864;SDS011;20159;51.072;13.526;2022-08-06T00:12:48;4.40;;;2.00;;
33864;SDS011;20159;51.072;13.526;2022-08-06T00:15:14;4.57;;;1.90;;
33864;SDS011;20159;51.072;13.526;2022-08-06T00:17:43;3.72;;;1.88;;
33864;SDS011;20159;51.072;13.526;2022-08-06T00:20:10;3.15;;;2.13;;
33864;SDS011;20159;51.072;13.526;2022-08-06T00:22:37;4.43;;;2.17;;
33864;SDS011;20159;51.072;13.526;2022-08-06T00:25:03;3.75;;;2.20;;
33864;SDS011;20159;51.072;13.526;2022-08-06T00:27:29;4.78;;;2.65;;
33864;SDS011;20159;51.072;13.526;2022-08-06T00:29:55;2.65;;;1.77;;
33864;SDS011;20159;51.072;13.526;2022-08-06T00:32:20;2.90;;;2.10;;
33864;SDS011;20159;51.072;13.526;2022-08-06T00:34:46;3.40;;;2.00;;
33864;SDS011;20159;51.072;13.526;2022-08-06T00:37:11;4.03;;;2.10;;
33864;SDS011;20159;51.072;13.526;2022-08-06T00:39:37;3.45;;;2.10;;
33864;SDS011;20159;51.072;13.526;2022-08-06T00:42:02;4.30;;;2.00;;
33864;SDS011;20159;51.072;13.526;2022-08-06T00:44:28;3.15;;;2.15;;
33864;SDS011;20159;51.072;13.526;2022-08-06T00:46:53;3.28;;;1.70;;
33864;SDS011;20159;51.072;13.526;2022-08-06T00:49:19;3.47;;;2.00;;
33864;SDS011;20159;51.072;13.526;2022-08-06T00:51:45;4.82;;;2.28;;
33864;SDS011;20159;51.072;13.526;2022-08-06T00:54:10;3.15;;;1.90;;
33864;SDS011;20159;51.072;13.526;2022-08-06T00:56:36;4.30;;;2.22;;
33864;SDS011;20159;51.072;13.526;2022-08-06T00:59:02;2.65;;;2.15;;
33864;SDS011;20159;51.072;13.526;2022-08-06T01:01:28;7.15;;;2.97;;
33864;SDS011;20159;51.072;13.526;2022-08-06T01:03:54;4.53;;;2.20;;
33864;SDS011;20159;51.072;13.526;2022-08-06T01:06:20;3.08;;;2.08;;
33864;SDS011;20159;51.072;13.526;2022-08-06T01:08:45;3.70;;;2.28;;
33864;SDS011;20159;51.072;13.526;2022-08-06T01:11:11;3.13;;;2.55;;
33864;SDS011;20159;51.072;13.526;2022-08-06T01:13:37;3.67;;;2.35;;
33864;SDS011;20159;51.072;13.526;2022-08-06T01:16:05;5.35;;;2.63;;
33864;SDS011;20159;51.072;13.526;2022-08-06T01:18:39;3.63;;;2.40;;
33864;SDS011;20159;51.072;13.526;2022-08-06T01:21:35;3.42;;;2.70;;
33864;SDS011;20159;51.072;13.526;2022-08-06T01:29:50;3.13;;;2.75;;
33864;SDS011;20159;51.072;13.526;2022-08-06T01:32:23;4.82;;;3.05;;
33864;SDS011;20159;51.072;13.526;2022-08-06T01:34:56;3.28;;;2.58;;
33864;SDS011;20159;51.072;13.526;2022-08-06T01:37:27;4.07;;;2.75;;
33864;SDS011;20159;51.072;13.526;2022-08-06T01:39:58;4.85;;;3.20;;
33864;SDS011;20159;51.072;13.526;2022-08-06T01:42:29;4.45;;;2.58;;
33864;SDS011;20159;51.072;13.526;2022-08-06T01:44:56;5.13;;;2.67;;
33864;SDS011;20159;51.072;13.526;2022-08-06T01:47:29;2.75;;;2.47;;
33864;SDS011;20159;51.072;13.526;2022-08-06T01:49:57;2.45;;;1.98;;
33864;SDS011;20159;51.072;13.526;2022-08-06T01:52:27;3.85;;;2.20;;
33864;SDS011;20159;51.072;13.526;2022-08-06T01:54:59;2.85;;;1.80;;
33864;SDS011;20159;51.072;13.526;2022-08-06T01:57:28;4.00;;;1.98;;
33864;SDS011;20159;51.072;13.526;2022-08-06T01:59:57;1.77;;;1.40;;
33864;SDS011;20159;51.072;13.526;2022-08-06T02:02:26;2.55;;;1.60;;
33864;SDS011;20159;51.072;13.526;2022-08-06T02:04:54;2.60;;;1.70;;
33864;SDS011;20159;51.072;13.526;2022-08-06T02:07:23;3.30;;;1.52;;
33864;SDS011;20159;51.072;13.526;2022-08-06T02:09:54;2.80;;;1.55;;
33864;SDS011;20159;51.072;13.526;2022-08-06T02:12:23;2.22;;;1.67;;
33864;SDS011;20159;51.072;13.526;2022-08-06T02:14:54;3.05;;;1.63;;
33864;SDS011;20159;51.072;13.526;2022-08-06T02:17:30;2.45;;;1.80;;
33864;SDS011;20159;51.072;13.526;2022-08-06T02:19:58;1.92;;;1.75;;
33864;SDS011;20159;51.072;13.526;2022-08-06T02:22:29;2.40;;;1.70;;
33864;SDS011;20159;51.072;13.526;2022-08-06T02:24:57;2.38;;;1.80;;
33864;SDS011;20159;51.072;13.526;2022-08-06T02:27:27;3.72;;;1.90;;
33864;SDS011;20159;51.072;13.526;2022-08-06T02:29:55;4.07;;;2.22;;
33864;SDS011;20159;51.072;13.526;2022-08-06T02:32:22;3.08;;;2.13;;
33864;SDS011;20159;51.072;13.526;2022-08-06T02:34:48;2.35;;;2.15;;
33864;SDS011;20159;51.072;13.526;2022-08-06T02:37:17;2.65;;;1.95;;
33864;SDS011;20159;51.072;13.526;2022-08-06T02:39:52;3.90;;;2.05;;
33864;SDS011;20159;51.072;13.526;2022-08-06T02:42:23;5.63;;;2.03;;
33864;SDS011;20159;51.072;13.526;2022-08-06T02:45:02;3.50;;;1.65;;
33864;SDS011;20159;51.072;13.526;2022-08-06T02:47:38;2.75;;;1.35;;
33864;SDS011;20159;51.072;13.526;2022-08-06T02:50:13;2.47;;;1.30;;
33864;SDS011;20159;51.072;13.526;2022-08-06T02:55:19;1.80;;;1.20;;
33864;SDS011;20159;51.072;13.526;2022-08-06T02:57:51;1.30;;;1.15;;
33864;SDS011;20159;51.072;13.526;2022-08-06T03:00:19;3.20;;;1.27;;
33864;SDS011;20159;51.072;13.526;2022-08-06T03:02:47;4.03;;;1.08;;
33864;SDS011;20159;51.072;13.526;2022-08-06T03:05:17;1.95;;;1.17;;
33864;SDS011;20159;51.072;13.526;2022-08-06T03:07:44;2.55;;;1.40;;
33864;SDS011;20159;51.072;13.526;2022-08-06T03:10:13;1.52;;;1.23;;
33864;SDS011;20159;51.072;13.526;2022-08-06T03:12:41;2.45;;;1.20;;
33864;SDS011;20159;51.072;13.526;2022-08-06T03:15:08;2.30;;;1.10;;
33864;SDS011;20159;51.072;13.526;2022-08-06T03:17:35;1.40;;;1.00;;
33864;SDS011;20159;51.072;13.526;2022-08-06T03:20:02;1.38;;;0.95;;
33864;SDS011;20159;51.072;13.526;2022-08-06T03:22:30;1.25;;;1.10;;
33864;SDS011;20159;51.072;13.526;2022-08-06T03:24:58;1.90;;;0.98;;
33864;SDS011;20159;51.072;13.526;2022-08-06T03:27:25;2.35;;;1.00;;
33864;SDS011;20159;51.072;13.526;2022-08-06T03:29:51;1.60;;;0.90;;
33864;SDS011;20159;51.072;13.526;2022-08-06T03:32:18;1.10;;;0.80;;
33864;SDS011;20159;51.072;13.526;2022-08-06T03:34:44;0.98;;;0.63;;
33864;SDS011;20159;51.072;13.526;2022-08-06T03:37:10;1.88;;;0.65;;
33864;SDS011;20159;51.072;13.526;2022-08-06T03:39:38;0.88;;;0.52;;
33864;SDS011;20159;51.072;13.526;2022-08-06T03:42:06;3.13;;;1.10;;
33864;SDS011;20159;51.072;13.526;2022-08-06T03:44:32;1.48;;;0.55;;
33864;SDS011;20159;51.072;13.526;2022-08-06T03:46:58;0.47;;;0.43;;
33864;SDS011;20159;51.072;13.526;2022-08-06T03:49:37;1.30;;;0.63;;
33864;SDS011;20159;51.072;13.526;2022-08-06T03:52:06;1.67;;;0.65;;
33864;SDS011;20159;51.072;13.526;2022-08-06T03:54:36;1.23;;;0.60;;
33864;SDS011;20159;51.072;13.526;2022-08-06T03:57:06;1.35;;;0.60;;
33864;SDS011;20159;51.072;13.526;2022-08-06T03:59:36;1.88;;;0.70;;
33864;SDS011;20159;51.072;13.526;2022-08-06T04:02:05;0.90;;;0.60;;
33864;SDS011;20159;51.072;13.526;2022-08-06T04:04:32;1.10;;;0.60;;
33864;SDS011;20159;51.072;13.526;2022-08-06T04:06:59;0.90;;;0.50;;
33864;SDS011;20159;51.072;13.526;2022-08-06T04:09:25;1.30;;;0.60;;
33864;SDS011;20159;51.072;13.526;2022-08-06T04:11:54;0.95;;;0.75;;
33864;SDS011;20159;51.072;13.526;2022-08-06T04:14:21;3.42;;;0.93;;
33864;SDS011;20159;51.072;13.526;2022-08-06T04:16:47;0.50;;;0.50;;
33864;SDS011;20159;51.072;13.526;2022-08-06T04:19:13;1.20;;;0.70;;
33864;SDS011;20159;51.072;13.526;2022-08-06T04:21:43;6.10;;;0.95;;
33864;SDS011;20159;51.072;13.526;2022-08-06T04:24:09;1.33;;;0.60;;
33864;SDS011;20159;51.072;13.526;2022-08-06T04:26:35;1.33;;;0.88;;
33864;SDS011;20159;51.072;13.526;2022-08-06T04:29:03;1.70;;;0.68;;
33864;SDS011;20159;51.072;13.526;2022-08-06T04:31:31;2.35;;;0.60;;
33864;SDS011;20159;51.072;13.526;2022-08-06T04:33:58;0.85;;;0.60;;
33864;SDS011;20159;51.072;13.526;2022-08-06T04:36:25;0.95;;;0.60;;
33864;SDS011;20159;51.072;13.526;2022-08-06T04:38:51;0.82;;;0.77;;
33864;SDS011;20159;51.072;13.526;2022-08-06T04:41:17;1.60;;;0.77;;
33864;SDS011;20159;51.072;13.526;2022-08-06T04:43:43;1.02;;;0.60;;
33864;SDS011;20159;51.072;13.526;2022-08-06T04:46:10;1.70;;;0.70;;
33864;SDS011;20159;51.072;13.526;2022-08-06T04:48:36;0.65;;;0.45;;
33864;SDS011;20159;51.072;13.526;2022-08-06T04:51:03;1.23;;;0.65;;
33864;SDS011;20159;51.072;13.526;2022-08-06T04:53:34;2.03;;;0.73;;
33864;SDS011;20159;51.072;13.526;2022-08-06T04:56:05;2.08;;;0.88;;
33864;SDS011;20159;51.072;13.526;2022-08-06T04:58:31;1.13;;;0.70;;
33864;SDS011;20159;51.072;13.526;2022-08-06T05:00:57;1.35;;;0.68;;
33864;SDS011;20159;51.072;13.526;2022-08-06T05:03:23;0.82;;;0.60;;
33864;SDS011;20159;51.072;13.526;2022-08-06T05:08:35;2.05;;;0.80;;
33864;SDS011;20159;51.072;13.526;2022-08-06T05:11:08;2.35;;;0.60;;
33864;SDS011;20159;51.072;13.526;2022-08-06T05:13:50;1.75;;;0.70;;
33864;SDS011;20159;51.072;13.526;2022-08-06T05:16:19;0.93;;;0.60;;
33864;SDS011;20159;51.072;13.526;2022-08-06T05:18:49;0.60;;;0.50;;
33864;SDS011;20159;51.072;13.526;2022-08-06T05:21:21;0.95;;;0.60;;
33864;SDS011;20159;51.072;13.526;2022-08-06T05:23:52;0.95;;;0.68;;
33864;SDS011;20159;51.072;13.526;2022-08-06T05:26:19;1.63;;;0.60;;
33864;SDS011;20159;51.072;13.526;2022-08-06T05:28:45;1.73;;;0.50;;
33864;SDS011;20159;51.072;13.526;2022-08-06T05:31:11;2.33;;;0.60;;
33864;SDS011;20159;51.072;13.526;2022-08-06T05:33:37;0.90;;;0.32;;
33864;SDS011;20159;51.072;13.526;2022-08-06T05:36:04;0.68;;;0.38;;
33864;SDS011;20159;51.072;13.526;2022-08-06T05:38:33;0.63;;;0.38;;
33864;SDS011;20159;51.072;13.526;2022-08-06T05:41:00;1.02;;;0.38;;
33864;SDS011;20159;51.072;13.526;2022-08-06T05:43:25;1.27;;;0.40;;
33864;SDS011;20159;51.072;13.526;2022-08-06T05:45:52;1.05;;;0.30;;
33864;SDS011;20159;51.072;13.526;2022-08-06T05:48:21;1.48;;;0.40;;
33864;SDS011;20159;51.072;13.526;2022-08-06T05:50:50;1.50;;;0.50;;
33864;SDS011;20159;51.072;13.526;2022-08-06T05:53:28;0.55;;;0.30;;
33864;SDS011;20159;51.072;13.526;2022-08-06T05:56:02;0.80;;;0.40;;
33864;SDS011;20159;51.072;13.526;2022-08-06T05:58:56;0.70;;;0.40;;
33864;SDS011;20159;51.072;13.526;2022-08-06T06:01:23;1.05;;;0.35;;
33864;SDS011;20159;51.072;13.526;2022-08-06T06:03:50;1.15;;;0.40;;
33864;SDS011;20159;51.072;13.526;2022-08-06T06:06:18;2.83;;;0.65;;
33864;SDS011;20159;51.072;13.526;2022-08-06T06:08:45;0.73;;;0.38;;
33864;SDS011;20159;51.072;13.526;2022-08-06T06:11:10;1.25;;;0.57;;
33864;SDS011;20159;51.072;13.526;2022-08-06T06:13:37;0.98;;;0.50;;
33864;SDS011;20159;51.072;13.526;2022-08-06T06:21:32;2.58;;;0.60;;
33864;SDS011;20159;51.072;13.526;2022-08-06T06:37:37;1.67;;;0.50;;
33864;SDS011;20159;51.072;13.526;2022-08-06T06:40:25;1.58;;;0.50;;
33864;SDS011;20159;51.072;13.526;2022-08-06T06:43:05;3.47;;;0.45;;
33864;SDS011;20159;51.072;13.526;2022-08-06T06:45:37;1.33;;;0.40;;
33864;SDS011;20159;51.072;13.526;2022-08-06T06:48:28;0.52;;;0.40;;
33864;SDS011;20159;51.072;13.526;2022-08-06T06:51:03;1.40;;;0.60;;
33864;SDS011;20159;51.072;13.526;2022-08-06T06:53:34;0.73;;;0.52;;
33864;SDS011;20159;51.072;13.526;2022-08-06T06:56:05;0.73;;;0.30;;
33864;SDS011;20159;51.072;13.526;2022-08-06T06:58:36;1.13;;;0.50;;
33864;SDS011;20159;51.072;13.526;2022-08-06T07:01:05;0.77;;;0.40;;
33864;SDS011;20159;51.072;13.526;2022-08-06T07:03:34;4.13;;;0.80;;
33864;SDS011;20159;51.072;13.526;2022-08-06T07:06:03;1.38;;;0.47;;
33864;SDS011;20159;51.072;13.526;2022-08-06T07:08:31;1.13;;;0.50;;
33864;SDS011;20159;51.072;13.526;2022-08-06T07:10:58;1.08;;;0.50;;
33864;SDS011;20159;51.072;13.526;2022-08-06T07:13:24;2.70;;;0.40;;
33864;SDS011;20159;51.072;13.526;2022-08-06T07:15:51;1.17;;;0.47;;
33864;SDS011;20159;51.072;13.526;2022-08-06T07:18:18;1.10;;;0.45;;
33864;SDS011;20159;51.072;13.526;2022-08-06T07:20:45;1.95;;;0.40;;
33864;SDS011;20159;51.072;13.526;2022-08-06T07:23:11;1.10;;;0.30;;
33864;SDS011;20159;51.072;13.526;2022-08-06T07:25:41;1.30;;;0.80;;
33864;SDS011;20159;51.072;13.526;2022-08-06T07:28:09;1.80;;;0.65;;
33864;SDS011;20159;51.072;13.526;2022-08-06T07:30:36;1.35;;;0.30;;
33864;SDS011;20159;51.072;13.526;2022-08-06T07:33:03;2.45;;;0.38;;
33864;SDS011;20159;51.072;13.526;2022-08-06T07:35:29;0.77;;;0.10;;
33864;SDS011;20159;51.072;13.526;2022-08-06T07:38:00;1.85;;;0.30;;
33864;SDS011;20159;51.072;13.526;2022-08-06T07:40:31;1.30;;;0.30;;
33864;SDS011;20159;51.072;13.526;2022-08-06T07:43:16;1.15;;;0.30;;
33864;SDS011;20159;51.072;13.526;2022-08-06T07:45:45;0.85;;;0.20;;
33864;SDS011;20159;51.072;13.526;2022-08-06T07:48:13;0.85;;;0.28;;
33864;SDS011;20159;51.072;13.526;2022-08-06T07:50:41;0.73;;;0.20;;
33864;SDS011;20159;51.072;13.526;2022-08-06T07:53:10;0.50;;;0.20;;
33864;SDS011;20159;51.072;13.526;2022-08-06T07:55:36;0.65;;;0.30;;
33864;SDS011;20159;51.072;13.526;2022-08-06T07:58:03;0.57;;;0.20;;
33864;SDS011;20159;51.072;13.526;2022-08-06T08:00:30;0.85;;;0.38;;
33864;SDS011;20159;51.072;13.526;2022-08-06T08:02:56;1.83;;;0.30;;
33864;SDS011;20159;51.072;13.526;2022-08-06T08:05:41;1.08;;;0.20;;
33864;SDS011;20159;51.072;13.526;2022-08-06T08:08:28;0.50;;;0.22;;
33864;SDS011;20159;51.072;13.526;2022-08-06T08:10:54;0.45;;;0.10;;
33864;SDS011;20159;51.072;13.526;2022-08-06T08:13:21;1.42;;;0.20;;
33864;SDS011;20159;51.072;13.526;2022-08-06T08:15:48;1.52;;;0.30;;
33864;SDS011;20159;51.072;13.526;2022-08-06T08:18:14;0.60;;;0.20;;
33864;SDS011;20159;51.072;13.526;2022-08-06T08:20:40;2.00;;;0.20;;
33864;SDS011;20159;51.072;13.526;2022-08-06T08:23:08;0.57;;;0.30;;
33864;SDS011;20159;51.072;13.526;2022-08-06T08:25:36;1.15;;;0.22;;
33864;SDS011;20159;51.072;13.526;2022-08-06T08:28:02;2.13;;;0.30;;
33864;SDS011;20159;51.072;13.526;2022-08-06T08:30:29;0.57;;;0.20;;
33864;SDS011;20159;51.072;13.526;2022-08-06T08:32:55;1.13;;;0.30;;
33864;SDS011;20159;51.072;13.526;2022-08-06T08:35:21;0.63;;;0.20;;
33864;SDS011;20159;51.072;13.526;2022-08-06T08:37:46;1.00;;;0.30;;
33864;SDS011;20159;51.072;13.526;2022-08-06T08:40:12;0.80;;;0.28;;
33864;SDS011;20159;51.072;13.526;2022-08-06T08:42:42;0.95;;;0.20;;
33864;SDS011;20159;51.072;13.526;2022-08-06T08:45:10;0.52;;;0.10;;
33864;SDS011;20159;51.072;13.526;2022-08-06T08:47:37;1.40;;;0.50;;
33864;SDS011;20159;51.072;13.526;2022-08-06T08:50:09;0.20;;;0.10;;
33864;SDS011;20159;51.072;13.526;2022-08-06T08:52:36;0.70;;;0.10;;
33864;SDS011;20159;51.072;13.526;2022-08-06T08:55:05;1.77;;;0.25;;
33864;SDS011;20159;51.072;13.526;2022-08-06T08:57:34;1.58;;;0.10;;
33864;SDS011;20159;51.072;13.526;2022-08-06T09:00:02;1.05;;;0.20;;
33864;SDS011;20159;51.072;13.526;2022-08-06T09:02:29;0.52;;;0.20;;
33864;SDS011;20159;51.072;13.526;2022-08-06T09:04:55;1.02;;;0.20;;
33864;SDS011;20159;51.072;13.526;2022-08-06T09:07:21;0.93;;;0.20;;
33864;SDS011;20159;51.072;13.526;2022-08-06T09:09:47;0.93;;;0.30;;
33864;SDS011;20159;51.072;13.526;2022-08-06T09:12:12;5.35;;;0.32;;
33864;SDS011;20159;51.072;13.526;2022-08-06T09:14:38;1.33;;;0.10;;
33864;SDS011;20159;51.072;13.526;2022-08-06T09:17:05;0.77;;;0.30;;
33864;SDS011;20159;51.072;13.526;2022-08-06T09:19:31;0.43;;;0.30;;
33864;SDS011;20159;51.072;13.526;2022-08-06T09:21:58;1.10;;;0.10;;
33864;SDS011;20159;51.072;13.526;2022-08-06T09:24:24;0.60;;;0.15;;
33864;SDS011;20159;51.072;13.526;2022-08-06T09:29:29;1.05;;;0.20;;
33864;SDS011;20159;51.072;13.526;2022-08-06T09:31:55;0.85;;;0.20;;
33864;SDS011;20159;51.072;13.526;2022-08-06T09:34:21;1.75;;;0.40;;
33864;SDS011;20159;51.072;13.526;2022-08-06T09:36:55;2.15;;;0.30;;
33864;SDS011;20159;51.072;13.526;2022-08-06T09:39:34;4.20;;;0.32;;
33864;SDS011;20159;51.072;13.526;2022-08-06T09:42:05;0.82;;;0.20;;
33864;SDS011;20159;51.072;13.526;2022-08-06T09:44:32;0.77;;;0.22;;
33864;SDS011;20159;51.072;13.526;2022-08-06T09:46:58;1.35;;;0.32;;
33864;SDS011;20159;51.072;13.526;2022-08-06T09:49:25;0.57;;;0.10;;
33864;SDS011;20159;51.072;13.526;2022-08-06T09:51:51;0.90;;;0.20;;
33864;SDS011;20159;51.072;13.526;2022-08-06T09:54:38;0.63;;;0.10;;
33864;SDS011;20159;51.072;13.526;2022-08-06T09:57:03;2.20;;;0.30;;
33864;SDS011;20159;51.072;13.526;2022-08-06T09:59:29;1.02;;;0.15;;
33864;SDS011;20159;51.072;13.526;2022-08-06T10:02:14;0.20;;;0.10;;
33864;SDS011;20159;51.072;13.526;2022-08-06T10:04:40;0.52;;;0.10;;
33864;SDS011;20159;51.072;13.526;2022-08-06T10:07:06;0.20;;;0.10;;
33864;SDS011;20159;51.072;13.526;2022-08-06T10:09:32;1.45;;;0.40;;
33864;SDS011;20159;51.072;13.526;2022-08-06T10:11:58;0.13;;;0.10;;
33864;SDS011;20159;51.072;13.526;2022-08-06T10:14:25;2.55;;;0.40;;
33864;SDS011;20159;51.072;13.526;2022-08-06T10:17:11;1.08;;;0.20;;
33864;SDS011;20159;51.072;13.526;2022-08-06T10:19:39;0.80;;;0.20;;
33864;SDS011;20159;51.072;13.526;2022-08-06T10:22:07;0.50;;;0.10;;
33864;SDS011;20159;51.072;13.526;2022-08-06T10:24:36;1.35;;;0.20;;
33864;SDS011;20159;51.072;13.526;2022-08-06T10:27:05;1.10;;;0.10;;
33864;SDS011;20159;51.072;13.526;2022-08-06T10:29:32;0.28;;;0.10;;
33864;SDS011;20159;51.072;13.526;2022-08-06T10:32:00;1.02;;;0.20;;
33864;SDS011;20159;51.072;13.526;2022-08-06T10:34:27;0.70;;;0.20;;
33864;SDS011;20159;51.072;13.526;2022-08-06T10:36:54;0.80;;;0.17;;
33864;SDS011;20159;51.072;13.526;2022-08-06T10:39:27;1.15;;;0.10;;
33864;SDS011;20159;51.072;13.526;2022-08-06T10:41:56;0.85;;;0.15;;
33864;SDS011;20159;51.072;13.526;2022-08-06T10:44:22;1.50;;;0.10;;
33864;SDS011;20159;51.072;13.526;2022-08-06T10:46:51;1.15;;;0.20;;
33864;SDS011;20159;51.072;13.526;2022-08-06T10:49:18;1.05;;;0.10;;
33864;SDS011;20159;51.072;13.526;2022-08-06T10:51:44;1.10;;;0.13;;
33864;SDS011;20159;51.072;13.526;2022-08-06T10:54:11;1.00;;;0.10;;
33864;SDS011;20159;51.072;13.526;2022-08-06T10:56:36;2.53;;;0.20;;
33864;SDS011;20159;51.072;13.526;2022-08-06T10:59:04;1.02;;;0.13;;
33864;SDS011;20159;51.072;13.526;2022-08-06T11:01:35;0.80;;;0.10;;
33864;SDS011;20159;51.072;13.526;2022-08-06T11:04:41;0.70;;;0.30;;
33864;SDS011;20159;51.072;13.526;2022-08-06T11:13:02;1.90;;;0.20;;
33864;SDS011;20159;51.072;13.526;2022-08-06T11:15:50;0.40;;;0.10;;
33864;SDS011;20159;51.072;13.526;2022-08-06T11:18:17;0.60;;;0.20;;
33864;SDS011;20159;51.072;13.526;2022-08-06T11:20:44;0.50;;;0.15;;
33864;SDS011;20159;51.072;13.526;2022-08-06T11:28:10;1.17;;;0.10;;
33864;SDS011;20159;51.072;13.526;2022-08-06T11:31:28;1.00;;;0.10;;
33864;SDS011;20159;51.072;13.526;2022-08-06T11:36:07;0.38;;;0.17;;
33864;SDS011;20159;51.072;13.526;2022-08-06T11:46:27;0.43;;;0.10;;
33864;SDS011;20159;51.072;13.526;2022-08-06T11:51:44;0.70;;;0.30;;
33864;SDS011;20159;51.072;13.526;2022-08-06T11:59:37;0.52;;;0.10;;
33864;SDS011;20159;51.072;13.526;2022-08-06T12:02:17;0.52;;;0.10;;
33864;SDS011;20159;51.072;13.526;2022-08-06T12:07:39;0.65;;;0.17;;
33864;SDS011;20159;51.072;13.526;2022-08-06T12:12:32;0.20;;;0.10;;
33864;SDS011;20159;51.072;13.526;2022-08-06T12:14:59;1.52;;;0.20;;
33864;SDS011;20159;51.072;13.526;2022-08-06T12:17:28;0.77;;;0.10;;
33864;SDS011;20159;51.072;13.526;2022-08-06T12:19:56;0.65;;;0.10;;
33864;SDS011;20159;51.072;13.526;2022-08-06T12:22:23;0.63;;;0.20;;
33864;SDS011;20159;51.072;13.526;2022-08-06T12:24:50;0.10;;;0.00;;
33864;SDS011;20159;51.072;13.526;2022-08-06T12:27:19;0.45;;;0.00;;
33864;SDS011;20159;51.072;13.526;2022-08-06T12:29:48;0.20;;;0.10;;
33864;SDS011;20159;51.072;13.526;2022-08-06T12:32:21;1.15;;;0.17;;
33864;SDS011;20159;51.072;13.526;2022-08-06T12:34:49;0.30;;;0.10;;
33864;SDS011;20159;51.072;13.526;2022-08-06T12:37:16;1.05;;;0.17;;
33864;SDS011;20159;51.072;13.526;2022-08-06T12:39:42;1.10;;;0.20;;
33864;SDS011;20159;51.072;13.526;2022-08-06T12:42:27;0.40;;;0.17;;
33864;SDS011;20159;51.072;13.526;2022-08-06T12:44:53;0.45;;;0.10;;
33864;SDS011;20159;51.072;13.526;2022-08-06T12:47:19;0.70;;;0.20;;
33864;SDS011;20159;51.072;13.526;2022-08-06T12:49:46;1.08;;;0.10;;
33864;SDS011;20159;51.072;13.526;2022-08-06T12:52:12;0.90;;;0.43;;
33864;SDS011;20159;51.072;13.526;2022-08-06T12:54:41;0.82;;;0.10;;
33864;SDS011;20159;51.072;13.526;2022-08-06T12:57:06;1.40;;;0.10;;
33864;SDS011;20159;51.072;13.526;2022-08-06T12:59:32;0.20;;;0.10;;
33864;SDS011;20159;51.072;13.526;2022-08-06T13:01:58;0.57;;;0.13;;
33864;SDS011;20159;51.072;13.526;2022-08-06T13:04:24;0.60;;;0.10;;
33864;SDS011;20159;51.072;13.526;2022-08-06T13:06:51;0.35;;;0.10;;
33864;SDS011;20159;51.072;13.526;2022-08-06T13:09:17;0.70;;;0.10;;
33864;SDS011;20159;51.072;13.526;2022-08-06T13:11:52;0.90;;;0.20;;
33864;SDS011;20159;51.072;13.526;2022-08-06T13:14:18;0.80;;;0.20;;
33864;SDS011;20159;51.072;13.526;2022-08-06T13:16:45;0.30;;;0.17;;
33864;SDS011;20159;51.072;13.526;2022-08-06T13:19:16;2.03;;;0.30;;
33864;SDS011;20159;51.072;13.526;2022-08-06T13:21:44;1.60;;;0.20;;
33864;SDS011;20159;51.072;13.526;2022-08-06T13:24:11;0.50;;;0.30;;
33864;SDS011;20159;51.072;13.526;2022-08-06T13:26:47;0.88;;;0.20;;
33864;SDS011;20159;51.072;13.526;2022-08-06T13:29:19;0.47;;;0.10;;
33864;SDS011;20159;51.072;13.526;2022-08-06T13:31:48;0.40;;;0.10;;
33864;SDS011;20159;51.072;13.526;2022-08-06T13:34:23;0.65;;;0.10;;
33864;SDS011;20159;51.072;13.526;2022-08-06T13:36:53;0.55;;;0.30;;
33864;SDS011;20159;51.072;13.526;2022-08-06T13:39:26;0.45;;;0.25;;
33864;SDS011;20159;51.072;13.526;2022-08-06T13:42:13;0.20;;;0.10;;
33864;SDS011;20159;51.072;13.526;2022-08-06T13:44:40;1.40;;;0.10;;
33864;SDS011;20159;51.072;13.526;2022-08-06T13:47:07;0.32;;;0.03;;
33864;SDS011;20159;51.072;13.526;2022-08-06T13:49:37;0.15;;;0.03;;
33864;SDS011;20159;51.072;13.526;2022-08-06T13:52:02;0.90;;;0.15;;
33864;SDS011;20159;51.072;13.526;2022-08-06T13:54:28;0.60;;;0.20;;
33864;SDS011;20159;51.072;13.526;2022-08-06T13:56:55;0.20;;;0.10;;
33864;SDS011;20159;51.072;13.526;2022-08-06T13:59:21;1.45;;;0.20;;
33864;SDS011;20159;51.072;13.526;2022-08-06T14:01:48;1.55;;;0.20;;
33864;SDS011;20159;51.072;13.526;2022-08-06T14:04:14;0.82;;;0.30;;
33864;SDS011;20159;51.072;13.526;2022-08-06T14:06:42;0.40;;;0.20;;
33864;SDS011;20159;51.072;13.526;2022-08-06T14:09:08;0.10;;;0.00;;
33864;SDS011;20159;51.072;13.526;2022-08-06T14:11:33;10.25;;;1.08;;
33864;SDS011;20159;51.072;13.526;2022-08-06T14:13:59;5.15;;;0.65;;
33864;SDS011;20159;51.072;13.526;2022-08-06T14:16:24;1.10;;;0.10;;
33864;SDS011;20159;51.072;13.526;2022-08-06T14:18:50;0.40;;;0.10;;
33864;SDS011;20159;51.072;13.526;2022-08-06T14:21:15;0.50;;;0.10;;
33864;SDS011;20159;51.072;13.526;2022-08-06T14:23:41;2.63;;;0.20;;
33864;SDS011;20159;51.072;13.526;2022-08-06T14:26:06;0.45;;;0.10;;
33864;SDS011;20159;51.072;13.526;2022-08-06T14:28:33;0.60;;;0.17;;
33864;SDS011;20159;51.072;13.526;2022-08-06T14:30:59;0.68;;;0.20;;
33864;SDS011;20159;51.072;13.526;2022-08-06T14:33:24;0.77;;;0.20;;
33864;SDS011;20159;51.072;13.526;2022-08-06T14:35:50;2.08;;;0.30;;
33864;SDS011;20159;51.072;13.526;2022-08-06T14:38:16;0.60;;;0.17;;
33864;SDS011;20159;51.072;13.526;2022-08-06T14:40:41;0.40;;;0.10;;
33864;SDS011;20159;51.072;13.526;2022-08-06T14:43:25;1.05;;;0.10;;
33864;SDS011;20159;51.072;13.526;2022-08-06T14:46:10;1.60;;;0.20;;
33864;SDS011;20159;51.072;13.526;2022-08-06T14:48:35;2.60;;;0.20;;
33864;SDS011;20159;51.072;13.526;2022-08-06T14:51:01;1.10;;;0.20;;
33864;SDS011;20159;51.072;13.526;2022-08-06T14:53:28;0.50;;;0.10;;
33864;SDS011;20159;51.072;13.526;2022-08-06T14:55:53;0.35;;;0.20;;
33864;SDS011;20159;51.072;13.526;2022-08-06T14:58:19;0.55;;;0.15;;
33864;SDS011;20159;51.072;13.526;2022-08-06T15:00:44;0.20;;;0.10;;
33864;SDS011;20159;51.072;13.526;2022-08-06T15:03:12;1.98;;;0.40;;
33864;SDS011;20159;51.072;13.526;2022-08-06T15:05:40;0.15;;;0.10;;
33864;SDS011;20159;51.072;13.526;2022-08-06T15:08:06;0.55;;;0.10;;
33864;SDS011;20159;51.072;13.526;2022-08-06T15:10:32;4.45;;;0.43;;
33864;SDS011;20159;51.072;13.526;2022-08-06T15:12:57;1.35;;;0.35;;
33864;SDS011;20159;51.072;13.526;2022-08-06T15:15:23;0.90;;;0.20;;
33864;SDS011;20159;51.072;13.526;2022-08-06T15:17:48;1.00;;;0.20;;
33864;SDS011;20159;51.072;13.526;2022-08-06T15:20:14;0.10;;;0.10;;
33864;SDS011;20159;51.072;13.526;2022-08-06T15:22:39;0.88;;;0.20;;
33864;SDS011;20159;51.072;13.526;2022-08-06T15:25:05;0.45;;;0.10;;
33864;SDS011;20159;51.072;13.526;2022-08-06T15:27:30;0.50;;;0.20;;
33864;SDS011;20159;51.072;13.526;2022-08-06T15:29:56;1.67;;;0.10;;
33864;SDS011;20159;51.072;13.526;2022-08-06T15:32:23;0.57;;;0.10;;
33864;SDS011;20159;51.072;13.526;2022-08-06T15:34:48;0.43;;;0.15;;
33864;SDS011;20159;51.072;13.526;2022-08-06T15:37:14;9.25;;;1.13;;
33864;SDS011;20159;51.072;13.526;2022-08-06T15:39:39;4.80;;;0.70;;
33864;SDS011;20159;51.072;13.526;2022-08-06T15:42:05;1.30;;;0.75;;
33864;SDS011;20159;51.072;13.526;2022-08-06T15:44:30;0.80;;;0.20;;
33864;SDS011;20159;51.072;13.526;2022-08-06T15:46:56;1.52;;;0.50;;
33864;SDS011;20159;51.072;13.526;2022-08-06T15:49:21;0.30;;;0.20;;